createdAt,value
2023-03-06T00:01:09.147Z,7.16
2023-03-06T00:03:36.796Z,7.13
2023-03-06T00:06:04.533Z,7.12
2023-03-06T00:08:32.077Z,7.11
2023-03-06T00:11:00.249Z,7.08
2023-03-06T00:13:30.178Z,7.09
2023-03-06T00:16:00.991Z,7.07
2023-03-06T00:18:28.690Z,7.08
2023-03-06T00:20:56.262Z,7.07
2023-03-06T00:23:23.797Z,7.07
2023-03-06T00:25:51.383Z,7.06
2023-03-06T00:28:18.881Z,7.05
2023-03-06T00:30:47.397Z,7.05
2023-03-06T00:33:14.955Z,7.06
2023-03-06T00:35:42.593Z,7.06
2023-03-06T00:38:14.494Z,7.03
2023-03-06T00:40:42.035Z,7.03
2023-03-06T00:43:10.093Z,7.01
2023-03-06T00:45:37.893Z,6.98
2023-03-06T00:48:05.807Z,6.99
2023-03-06T00:50:35.141Z,7.01
2023-03-06T00:53:02.731Z,7.04
2023-03-06T00:55:31.082Z,7.03
2023-03-06T00:57:58.683Z,7.02
2023-03-06T01:00:28.427Z,7.04
2023-03-06T01:02:56.056Z,7.05
2023-03-06T01:05:24.730Z,7.05
2023-03-06T01:07:52.278Z,7.05
2023-03-06T01:10:20.237Z,7.02
2023-03-06T01:12:48.708Z,7.02
2023-03-06T01:15:16.229Z,7.01
2023-03-06T01:17:45.092Z,6.97
2023-03-06T01:20:18.923Z,6.99
2023-03-06T01:22:46.491Z,7.00
2023-03-06T01:25:14.021Z,6.97
2023-03-06T01:27:41.634Z,6.96
2023-03-06T01:30:12.494Z,6.95
2023-03-06T01:32:40.193Z,6.96
2023-03-06T01:35:08.858Z,6.96
2023-03-06T01:37:37.392Z,6.98
2023-03-06T01:40:06.565Z,6.98
2023-03-06T01:42:34.120Z,6.95
2023-03-06T01:45:12.959Z,6.94
2023-03-06T01:47:40.467Z,6.93
2023-03-06T01:50:12.573Z,6.87
2023-03-06T01:52:52.530Z,6.84
2023-03-06T01:55:26.128Z,6.85
2023-03-06T01:57:59.768Z,6.85
2023-03-06T02:00:29.056Z,6.79
2023-03-06T02:03:10.320Z,6.79
2023-03-06T02:05:41.228Z,6.80
2023-03-06T02:08:13.843Z,6.79
2023-03-06T02:10:50.095Z,6.80
2023-03-06T02:13:17.669Z,6.80
2023-03-06T02:15:45.276Z,6.79
2023-03-06T02:18:13.921Z,6.76
2023-03-06T02:20:52.469Z,6.72
2023-03-06T02:23:59.571Z,6.66
2023-03-06T02:26:28.660Z,6.68
2023-03-06T02:28:58.416Z,6.67
2023-03-06T02:31:31.772Z,6.70
2023-03-06T02:34:16.649Z,6.71
2023-03-06T02:37:08.813Z,6.67
2023-03-06T02:39:42.943Z,6.72
2023-03-06T02:42:17.426Z,6.70
2023-03-06T02:44:45.234Z,6.69
2023-03-06T02:47:12.945Z,6.72
2023-03-06T02:49:40.432Z,6.68
2023-03-06T02:52:08.131Z,6.67
2023-03-06T02:54:35.672Z,6.64
2023-03-06T02:57:03.259Z,6.67
2023-03-06T02:59:32.473Z,6.64
2023-03-06T03:02:00.072Z,6.63
2023-03-06T03:04:27.649Z,6.61
2023-03-06T03:06:55.528Z,6.64
2023-03-06T03:09:23.500Z,6.61
2023-03-06T03:11:50.979Z,6.61
2023-03-06T03:14:18.732Z,6.60
2023-03-06T03:16:47.949Z,6.60
2023-03-06T03:19:15.416Z,6.63
2023-03-06T03:21:43.506Z,6.63
2023-03-06T03:24:11.051Z,6.62
2023-03-06T03:26:38.670Z,6.64
2023-03-06T03:29:12.241Z,6.66
2023-03-06T03:31:39.748Z,6.65
2023-03-06T03:34:08.280Z,6.66
2023-03-06T03:36:39.078Z,6.67
2023-03-06T03:39:08.896Z,6.67
2023-03-06T03:41:36.728Z,6.68
2023-03-06T03:44:07.897Z,6.69
2023-03-06T03:46:36.218Z,6.68
2023-03-06T03:49:05.666Z,6.65
2023-03-06T03:51:33.390Z,6.64
2023-03-06T03:54:01.267Z,6.63
2023-03-06T03:56:34.760Z,6.62
2023-03-06T03:59:09.185Z,6.59
2023-03-06T04:01:45.855Z,6.57
2023-03-06T04:04:13.823Z,6.59
2023-03-06T04:06:42.986Z,6.55
2023-03-06T04:09:10.926Z,6.54
2023-03-06T04:11:38.995Z,6.54
2023-03-06T04:14:08.231Z,6.53
2023-03-06T04:16:36.146Z,6.56
2023-03-06T04:19:03.749Z,6.54
2023-03-06T04:21:32.068Z,6.52
2023-03-06T04:24:00.172Z,6.53
2023-03-06T04:26:27.674Z,6.50
2023-03-06T04:28:56.110Z,6.52
2023-03-06T04:31:23.804Z,6.51
2023-03-06T04:33:51.325Z,6.48
2023-03-06T04:36:35.462Z,6.45
2023-03-06T04:39:07.728Z,6.49
2023-03-06T04:41:35.891Z,6.50
2023-03-06T04:44:03.596Z,6.53
2023-03-06T04:46:31.122Z,6.53
2023-03-06T04:48:58.625Z,6.51
2023-03-06T04:51:26.439Z,6.50
2023-03-06T04:53:53.908Z,6.50
2023-03-06T04:56:21.471Z,6.52
2023-03-06T04:58:49.200Z,6.55
2023-03-06T05:01:16.684Z,6.52
2023-03-06T05:03:44.184Z,6.48
2023-03-06T05:06:11.688Z,6.49
2023-03-06T05:08:39.218Z,6.52
2023-03-06T05:11:06.955Z,6.49
2023-03-06T05:13:34.453Z,6.50
2023-03-06T05:16:06.970Z,6.50
2023-03-06T05:18:35.786Z,6.50
2023-03-06T05:21:04.996Z,6.50
2023-03-06T05:23:36.285Z,6.53
2023-03-06T05:26:09.199Z,6.53
2023-03-06T05:28:36.797Z,6.55
2023-03-06T05:31:05.389Z,6.54
2023-03-06T05:33:34.692Z,6.54
2023-03-06T05:36:02.552Z,6.55
2023-03-06T05:38:30.132Z,6.55
2023-03-06T05:40:57.642Z,6.53
2023-03-06T05:43:25.146Z,6.55
2023-03-06T05:46:04.618Z,6.53
2023-03-06T05:48:33.141Z,6.55
2023-03-06T05:51:02.377Z,6.53
2023-03-06T05:53:30.902Z,6.54
2023-03-06T05:56:08.811Z,6.53
2023-03-06T05:58:36.743Z,6.53
2023-03-06T06:01:17.607Z,6.50
2023-03-06T06:03:46.352Z,6.52
2023-03-06T06:06:15.356Z,6.52
2023-03-06T06:08:43.054Z,6.54
2023-03-06T06:11:12.981Z,6.54
2023-03-06T06:13:41.754Z,6.54
2023-03-06T06:16:16.373Z,6.54
2023-03-06T06:18:44.004Z,6.52
2023-03-06T06:21:14.348Z,6.52
2023-03-06T06:23:42.488Z,6.52
2023-03-06T06:26:10.917Z,6.53
2023-03-06T06:28:38.469Z,6.53
2023-03-06T06:31:13.055Z,6.55
2023-03-06T06:33:41.525Z,6.54
2023-03-06T06:36:18.015Z,6.49
2023-03-06T06:38:45.529Z,6.50
2023-03-06T06:41:38.904Z,6.50
2023-03-06T06:44:01.399Z,6.56
2023-03-06T06:49:17.380Z,6.58
2023-03-06T06:51:45.728Z,6.58
2023-03-06T06:54:13.327Z,6.59
2023-03-06T06:56:40.830Z,6.61
2023-03-06T06:59:16.685Z,6.59
2023-03-06T07:01:45.133Z,6.60
2023-03-06T07:04:14.128Z,6.60
2023-03-06T07:06:42.719Z,6.60
2023-03-06T07:09:10.432Z,6.65
2023-03-06T07:11:39.581Z,6.67
2023-03-06T07:14:07.072Z,6.71
2023-03-06T07:16:34.886Z,6.75
2023-03-06T07:19:02.736Z,6.77
2023-03-06T07:21:30.309Z,6.80
2023-03-06T07:23:58.071Z,6.80
2023-03-06T07:26:27.365Z,6.82
2023-03-06T07:28:55.355Z,6.87
2023-03-06T07:31:26.931Z,6.90
2023-03-06T07:33:55.557Z,6.93
2023-03-06T07:36:23.943Z,6.97
2023-03-06T07:38:51.493Z,6.98
2023-03-06T07:41:21.960Z,6.97
2023-03-06T07:43:50.525Z,7.02
2023-03-06T07:46:19.274Z,7.03
2023-03-06T07:48:46.813Z,7.08
2023-03-06T07:51:18.029Z,7.02
2023-03-06T07:53:45.907Z,7.06
2023-03-06T07:56:13.941Z,6.98
2023-03-06T07:58:45.021Z,7.00
2023-03-06T08:01:16.832Z,7.06
2023-03-06T08:03:44.415Z,7.17
2023-03-06T08:06:16.728Z,7.05
2023-03-06T08:08:47.137Z,7.01
2023-03-06T08:11:17.782Z,7.05
2023-03-06T08:13:45.471Z,7.10
2023-03-06T08:16:12.990Z,7.18
2023-03-06T08:18:40.551Z,7.21
2023-03-06T08:21:14.750Z,7.08
2023-03-06T08:23:42.877Z,7.02
2023-03-06T08:26:23.409Z,7.16
2023-03-06T08:28:52.883Z,7.01
2023-03-06T08:31:43.172Z,7.04
2023-03-06T08:34:17.666Z,6.77
2023-03-06T08:36:45.412Z,6.93
2023-03-06T08:39:14.059Z,6.99
2023-03-06T08:41:42.293Z,6.85
2023-03-06T08:44:12.119Z,6.84
2023-03-06T08:46:39.942Z,6.96
2023-03-06T08:49:07.566Z,6.93
2023-03-06T08:51:35.722Z,7.03
2023-03-06T08:54:03.559Z,7.07
2023-03-06T08:56:34.050Z,7.17
2023-03-06T08:59:04.403Z,7.12
2023-03-06T09:01:36.522Z,7.21
2023-03-06T09:04:08.495Z,7.24
2023-03-06T09:06:41.058Z,7.19
2023-03-06T09:09:09.806Z,7.09
2023-03-06T09:11:38.055Z,7.08
2023-03-06T09:14:06.178Z,6.99
2023-03-06T09:16:33.746Z,7.07
2023-03-06T09:19:01.344Z,6.93
2023-03-06T09:21:28.857Z,6.92
2023-03-06T09:24:22.170Z,6.84
2023-03-06T09:26:51.621Z,6.78
2023-03-06T09:29:19.294Z,6.89
2023-03-06T09:31:46.822Z,6.78
2023-03-06T09:34:14.634Z,6.65
2023-03-06T09:36:55.336Z,6.80
2023-03-06T09:39:26.376Z,6.76
2023-03-06T09:41:55.157Z,6.81
2023-03-06T09:44:30.944Z,7.00
2023-03-06T09:47:29.566Z,6.97
2023-03-06T09:50:30.680Z,6.82
2023-03-06T09:53:32.698Z,6.36
2023-03-06T09:56:13.329Z,6.78
2023-03-06T09:59:13.200Z,6.87
2023-03-06T10:01:44.922Z,6.79
2023-03-06T10:04:41.657Z,6.93
2023-03-06T10:07:21.489Z,6.74
2023-03-06T10:09:57.274Z,6.85
2023-03-06T10:12:29.151Z,7.06
2023-03-06T10:15:19.424Z,7.13
2023-03-06T10:17:47.325Z,7.30
2023-03-06T10:20:19.213Z,7.30
2023-03-06T10:23:05.468Z,7.35
2023-03-06T10:26:24.321Z,7.38
2023-03-06T10:29:10.830Z,7.53
2023-03-06T10:31:44.662Z,7.73
2023-03-06T10:34:24.119Z,7.86
2023-03-06T10:36:51.820Z,7.98
2023-03-06T10:39:22.761Z,8.04
2023-03-06T10:41:50.338Z,8.08
2023-03-06T10:44:21.181Z,8.12
2023-03-06T10:46:52.017Z,8.19
2023-03-06T10:49:35.970Z,8.20
2023-03-06T10:52:20.612Z,8.21
2023-03-06T10:54:48.585Z,8.02
2023-03-06T10:57:29.408Z,7.83
2023-03-06T11:00:04.525Z,7.97
2023-03-06T11:02:39.423Z,8.03
2023-03-06T11:05:19.649Z,8.17
2023-03-06T11:07:59.719Z,8.09
2023-03-06T11:10:30.466Z,8.04
2023-03-06T11:13:21.248Z,8.13
2023-03-06T11:16:30.498Z,7.95
2023-03-06T11:19:03.911Z,8.03
2023-03-06T11:21:34.957Z,8.12
2023-03-06T11:24:22.869Z,8.01
2023-03-06T11:26:59.693Z,8.13
2023-03-06T11:29:38.873Z,8.16
2023-03-06T11:32:18.463Z,8.22
2023-03-06T11:35:02.739Z,8.14
2023-03-06T11:37:49.458Z,7.69
2023-03-06T11:40:37.240Z,7.87
2023-03-06T11:43:48.075Z,8.01
2023-03-06T11:46:28.806Z,8.13
2023-03-06T11:49:38.328Z,7.89
2023-03-06T11:52:33.683Z,7.94
2023-03-06T11:55:01.318Z,7.89
2023-03-06T11:57:49.093Z,7.86
2023-03-06T12:00:32.839Z,8.15
2023-03-06T12:03:50.004Z,8.44
2023-03-06T12:06:36.593Z,8.55
2023-03-06T12:09:13.182Z,8.62
2023-03-06T12:12:06.402Z,8.63
2023-03-06T12:14:37.412Z,8.67
2023-03-06T12:18:05.638Z,8.66
2023-03-06T12:21:16.176Z,8.62
2023-03-06T12:23:55.629Z,8.55
2023-03-06T12:26:35.702Z,8.57
2023-03-06T12:29:41.434Z,8.55
2023-03-06T12:32:57.545Z,8.44
2023-03-06T12:36:07.620Z,8.42
2023-03-06T12:39:35.758Z,8.41
2023-03-06T12:42:31.233Z,8.52
2023-03-06T12:45:21.822Z,8.48
2023-03-06T12:47:54.281Z,8.72
2023-03-06T12:50:32.519Z,8.71
2023-03-06T12:53:12.538Z,8.45
2023-03-06T12:55:43.768Z,8.76
2023-03-06T12:58:29.866Z,8.73
2023-03-06T13:01:52.089Z,8.32
2023-03-06T13:05:14.774Z,8.53
2023-03-06T13:08:22.686Z,8.76
2023-03-06T13:11:47.483Z,8.90
2023-03-06T13:14:37.538Z,9.01
2023-03-06T13:17:34.381Z,8.81
2023-03-06T13:20:14.118Z,8.86
2023-03-06T13:22:43.606Z,8.78
2023-03-06T13:25:46.792Z,8.60
2023-03-06T13:28:46.035Z,8.71
2023-03-06T13:31:27.584Z,8.79
2023-03-06T13:34:02.260Z,8.67
2023-03-06T13:36:37.597Z,8.63
2023-03-06T13:39:11.372Z,8.60
2023-03-06T13:41:55.098Z,8.59
2023-03-06T13:44:25.609Z,8.38
2023-03-06T13:47:48.843Z,8.34
2023-03-06T13:50:47.735Z,8.26
2023-03-06T13:53:44.871Z,8.33
2023-03-06T13:56:47.519Z,8.25
2023-03-06T14:00:08.300Z,8.19
2023-03-06T14:03:17.883Z,8.17
2023-03-06T14:05:48.920Z,8.37
2023-03-06T14:08:24.002Z,8.37
2023-03-06T14:11:06.661Z,8.54
2023-03-06T14:13:47.427Z,8.45
2023-03-06T14:16:23.456Z,8.45
2023-03-06T14:18:53.765Z,8.53
2023-03-06T14:21:31.654Z,8.70
2023-03-06T14:24:02.267Z,8.79
2023-03-06T14:26:40.105Z,8.70
2023-03-06T14:29:24.654Z,8.78
2023-03-06T14:31:58.728Z,8.81
2023-03-06T14:34:30.083Z,8.81
2023-03-06T14:37:05.501Z,8.84
2023-03-06T14:39:44.810Z,8.68
2023-03-06T14:42:19.517Z,8.81
2023-03-06T14:44:49.170Z,8.74
2023-03-06T14:47:32.390Z,8.82
2023-03-06T14:50:49.031Z,8.80
2023-03-06T14:53:23.088Z,8.67
2023-03-06T14:55:58.923Z,8.75
2023-03-06T14:58:51.401Z,8.78
2023-03-06T15:01:31.440Z,8.60
2023-03-06T15:04:01.290Z,8.62
2023-03-06T15:06:42.529Z,8.58
2023-03-06T15:09:26.645Z,8.56
2023-03-06T15:12:20.289Z,8.53
2023-03-06T15:14:58.017Z,8.56
2023-03-06T15:17:30.387Z,8.55
2023-03-06T15:20:01.829Z,8.46
2023-03-06T15:22:50.013Z,8.44
2023-03-06T15:25:22.272Z,8.46
2023-03-06T15:27:51.601Z,8.12
2023-03-06T15:30:33.282Z,8.11
2023-03-06T15:33:25.042Z,7.89
2023-03-06T15:36:01.942Z,7.98
2023-03-06T15:38:44.614Z,7.80
2023-03-06T15:41:37.288Z,7.77
2023-03-06T15:44:13.908Z,7.83
2023-03-06T15:46:42.140Z,7.92
2023-03-06T15:49:16.821Z,7.66
2023-03-06T15:51:44.541Z,7.66
2023-03-06T15:54:12.988Z,7.79
2023-03-06T15:56:44.212Z,7.80
2023-03-06T15:59:22.125Z,7.86
2023-03-06T16:01:50.740Z,7.79
2023-03-06T16:04:19.830Z,7.68
2023-03-06T16:06:47.416Z,7.75
2023-03-06T16:09:14.983Z,7.78
2023-03-06T16:11:44.759Z,7.80
2023-03-06T16:14:23.924Z,7.87
2023-03-06T16:16:56.589Z,7.77
2023-03-06T16:19:27.418Z,7.65
2023-03-06T16:21:56.697Z,7.76
2023-03-06T16:24:26.065Z,7.75
2023-03-06T16:26:55.033Z,7.83
2023-03-06T16:29:26.360Z,7.75
2023-03-06T16:31:56.865Z,7.72
2023-03-06T16:34:25.060Z,7.77
2023-03-06T16:36:52.748Z,7.79
2023-03-06T16:39:23.751Z,7.69
2023-03-06T16:41:52.424Z,7.74
2023-03-06T16:44:20.909Z,7.80
2023-03-06T16:46:50.234Z,7.64
2023-03-06T16:49:22.029Z,7.54
2023-03-06T16:51:50.960Z,7.44
2023-03-06T16:54:18.761Z,7.54
2023-03-06T16:56:46.465Z,7.61
2023-03-06T16:59:13.984Z,7.65
2023-03-06T17:01:45.380Z,7.74
2023-03-06T17:04:12.909Z,7.77
2023-03-06T17:06:41.781Z,7.80
2023-03-06T17:09:14.259Z,7.80
2023-03-06T17:11:44.761Z,7.82
2023-03-06T17:14:12.593Z,7.79
2023-03-06T17:16:40.642Z,7.80
2023-03-06T17:19:11.431Z,7.75
2023-03-06T17:21:39.238Z,7.74
2023-03-06T17:24:07.462Z,7.69
2023-03-06T17:26:36.958Z,7.71
2023-03-06T17:29:06.936Z,7.64
2023-03-06T17:31:34.660Z,7.66
2023-03-06T17:34:02.224Z,7.62
2023-03-06T17:36:31.433Z,7.63
2023-03-06T17:39:01.893Z,7.64
2023-03-06T17:41:29.860Z,7.59
2023-03-06T17:43:58.657Z,7.55
2023-03-06T17:46:26.347Z,7.55
2023-03-06T17:48:55.403Z,7.51
2023-03-06T17:51:23.240Z,7.41
2023-03-06T17:53:52.152Z,7.48
2023-03-06T17:56:19.958Z,7.54
2023-03-06T17:58:47.676Z,7.61
2023-03-06T18:01:19.235Z,7.61
2023-03-06T18:03:49.908Z,7.58
2023-03-06T18:06:18.629Z,7.58
2023-03-06T18:08:46.612Z,7.60
2023-03-06T18:11:15.495Z,7.53
2023-03-06T18:13:46.342Z,7.57
2023-03-06T18:16:17.552Z,7.56
2023-03-06T18:18:45.979Z,7.55
2023-03-06T18:21:16.099Z,7.51
2023-03-06T18:23:43.769Z,7.57
2023-03-06T18:26:16.765Z,7.58
2023-03-06T18:28:48.329Z,7.50
2023-03-06T18:31:28.066Z,7.48
2023-03-06T18:33:58.759Z,7.46
2023-03-06T18:36:29.779Z,7.49
2023-03-06T18:38:58.646Z,7.50
2023-03-06T18:41:27.290Z,7.47
2023-03-06T18:43:57.312Z,7.44
2023-03-06T18:46:28.882Z,7.46
2023-03-06T18:48:56.417Z,7.45
2023-03-06T18:51:24.099Z,7.49
2023-03-06T18:53:51.689Z,7.48
2023-03-06T18:56:22.021Z,7.45
2023-03-06T18:58:50.396Z,7.48
2023-03-06T19:01:18.509Z,7.47
2023-03-06T19:03:46.486Z,7.42
2023-03-06T19:06:16.913Z,7.42
2023-03-06T19:08:44.819Z,7.43
2023-03-06T19:11:15.613Z,7.38
2023-03-06T19:13:43.953Z,7.36
2023-03-06T19:16:21.661Z,7.35
2023-03-06T19:18:49.222Z,7.36
2023-03-06T19:21:20.594Z,7.36
2023-03-06T19:23:48.739Z,7.35
2023-03-06T19:26:18.636Z,7.35
2023-03-06T19:28:47.890Z,7.34
2023-03-06T19:31:27.480Z,7.29
2023-03-06T19:33:57.091Z,7.34
2023-03-06T19:36:28.709Z,7.33
2023-03-06T19:38:58.389Z,7.34
2023-03-06T19:41:27.189Z,7.32
2023-03-06T19:44:02.295Z,7.33
2023-03-06T19:46:29.967Z,7.34
2023-03-06T19:49:00.279Z,7.35
2023-03-06T19:51:28.557Z,7.33
2023-03-06T19:53:57.502Z,7.32
2023-03-06T19:56:28.696Z,7.32
2023-03-06T19:58:56.653Z,7.33
2023-03-06T20:01:27.087Z,7.33
2023-03-06T20:03:58.656Z,7.32
2023-03-06T20:06:31.017Z,7.32
2023-03-06T20:08:58.866Z,7.31
2023-03-06T20:11:31.472Z,7.29
2023-03-06T20:14:01.931Z,7.26
2023-03-06T20:16:31.188Z,7.26
2023-03-06T20:19:01.069Z,7.23
2023-03-06T20:21:32.424Z,7.21
2023-03-06T20:24:00.078Z,7.22
2023-03-06T20:26:29.023Z,7.23
2023-03-06T20:28:57.702Z,7.25
2023-03-06T20:31:29.341Z,7.22
2023-03-06T20:33:58.876Z,7.21
2023-03-06T20:36:30.160Z,7.21
2023-03-06T20:39:01.334Z,7.22
2023-03-06T20:41:30.544Z,7.22
2023-03-06T20:43:59.620Z,7.21
2023-03-06T20:46:27.200Z,7.18
2023-03-06T20:48:55.888Z,7.19
2023-03-06T20:51:28.489Z,7.19
2023-03-06T20:53:56.727Z,7.19
2023-03-06T20:56:30.994Z,7.21
2023-03-06T20:58:59.342Z,7.20
2023-03-06T21:01:33.834Z,7.18
2023-03-06T21:04:04.446Z,7.19
2023-03-06T21:06:32.714Z,7.17
2023-03-06T21:09:01.719Z,7.15
2023-03-06T21:11:29.352Z,7.13
2023-03-06T21:13:57.127Z,7.15
2023-03-06T21:16:27.060Z,7.16
2023-03-06T21:18:56.072Z,7.17
2023-03-06T21:21:28.154Z,7.17
2023-03-06T21:23:55.926Z,7.16
2023-03-06T21:26:26.714Z,7.17
2023-03-06T21:28:56.478Z,7.17
2023-03-06T21:31:24.239Z,7.16
2023-03-06T21:33:52.450Z,7.19
2023-03-06T21:36:23.996Z,7.20
2023-03-06T21:38:52.479Z,7.18
2023-03-06T21:41:27.153Z,7.18
2023-03-06T21:44:00.420Z,7.18
2023-03-06T21:46:28.562Z,7.18
2023-03-06T21:48:57.830Z,7.18
2023-03-06T21:51:26.618Z,7.20
2023-03-06T21:53:55.351Z,7.17
2023-03-06T21:56:25.655Z,7.18
2023-03-06T21:58:53.678Z,7.18
2023-03-06T22:01:25.719Z,7.15
2023-03-06T22:03:53.434Z,7.12
2023-03-06T22:06:25.308Z,7.13
2023-03-06T22:08:55.044Z,7.09
2023-03-06T22:11:24.354Z,7.10
2023-03-06T22:13:55.648Z,7.11
2023-03-06T22:16:23.857Z,7.12
2023-03-06T22:18:52.014Z,7.12
2023-03-06T22:21:22.110Z,7.10
2023-03-06T22:23:57.176Z,7.08
2023-03-06T22:26:26.667Z,7.07
2023-03-06T22:28:54.572Z,7.06
2023-03-06T22:31:26.084Z,7.08
2023-03-06T22:33:55.700Z,7.10
2023-03-06T22:36:24.034Z,7.12
2023-03-06T22:38:57.378Z,7.12
2023-03-06T22:41:26.721Z,7.10
2023-03-06T22:43:59.666Z,7.05
2023-03-06T22:46:28.073Z,7.05
2023-03-06T22:48:57.080Z,7.09
2023-03-06T22:51:25.906Z,7.10
2023-03-06T22:53:54.066Z,7.12
2023-03-06T22:56:22.335Z,7.10
2023-03-06T22:58:49.931Z,7.13
2023-03-06T23:01:21.442Z,7.17
2023-03-06T23:03:52.047Z,7.17
2023-03-06T23:06:27.321Z,7.13
2023-03-06T23:09:00.323Z,7.10
2023-03-06T23:11:29.730Z,7.04
2023-03-06T23:14:17.356Z,6.98
2023-03-06T23:17:03.738Z,6.94
2023-03-06T23:19:50.269Z,6.92
2023-03-06T23:22:36.574Z,6.86
2023-03-06T23:25:22.892Z,6.84
2023-03-06T23:27:50.412Z,6.85
2023-03-06T23:30:18.177Z,6.83
2023-03-06T23:32:46.135Z,6.82
2023-03-06T23:35:14.400Z,6.80
2023-03-06T23:37:42.614Z,6.79
2023-03-06T23:40:11.624Z,6.77
2023-03-06T23:42:39.164Z,6.77
2023-03-06T23:45:07.565Z,6.74
2023-03-06T23:47:35.081Z,6.72
2023-03-06T23:50:02.659Z,6.67
2023-03-06T23:52:30.158Z,6.62
2023-03-06T23:54:57.772Z,6.62
2023-03-06T23:57:25.241Z,6.65
2023-03-06T23:59:53.317Z,6.64
